Bookmark and Share
Track history (hours):
 

Horizon

More information available from US FCC via Universal Licensing System and Coast Guard Vessel Documentation Center.

Last reported at 2014-Apr-09 17:07 UTC. Time now 2014-Apr-20 03:15 UTC.
Position N 26°31' W 080°01'.
Warning: this ship's position is 10 days out of date.

Length 42 m; draft 2.5 m.

Type: Pleasure craft. MMSI: 367460010.

NotesDate/timePositionNaut miles runAvg speedWind from/ knotsBaromVisibWave heightAir tempDewpointWater temp
2014-Apr-09 17:07N 26°31' W 080°01'1220.9
2014-Apr-09 16:33N 26°20' W 080°03'1413.7
2014-Apr-09 15:30N 26°06' W 080°07'0 0.4
2014-Apr-09 14:27N 26°06' W 080°07'1 1.3
2014-Apr-09 13:31N 26°07' W 080°07'0 0.0
2014-Apr-09 12:19N 26°07' W 080°07'0 0.0
2014-Apr-09 11:22N 26°07' W 080°07'0 0.0
2014-Apr-09 10:25N 26°07' W 080°07'0 0.0
2014-Apr-09 09:25N 26°07' W 080°07'0 0.0
2014-Apr-09 08:25N 26°07' W 080°07'0 0.0
2014-Apr-09 07:28N 26°07' W 080°07'0 0.0
2014-Apr-09 06:28N 26°07' W 080°07'0 0.0
2014-Apr-09 05:28N 26°07' W 080°07'0 0.0
2014-Apr-09 04:31N 26°07' W 080°07'0 0.0
2014-Apr-09 03:31N 26°07' W 080°07'0 0.0
2014-Apr-09 02:28N 26°07' W 080°07'0 0.0
2014-Apr-09 01:34N 26°07' W 080°07'1 0.9
2014-Apr-09 00:33N 26°08' W 080°07'4 4.4
2014-Apr-08 23:33N 26°13' W 080°06'4 4.1
2014-Apr-08 22:33N 26°08' W 080°06'1 1.2
2014-Apr-08 21:33N 26°07' W 080°07'0 0.0
2014-Apr-08 20:33N 26°07' W 080°07'0 0.0
2014-Apr-08 19:33N 26°07' W 080°07'0 0.0
2014-Apr-08 18:33N 26°07' W 080°07'0 0.0
2014-Apr-08 17:33N 26°07' W 080°07'0 0.0
2014-Apr-08 16:33N 26°07' W 080°07'0 0.0
2014-Apr-08 15:34N 26°07' W 080°07'0 0.0
2014-Apr-08 14:33N 26°07' W 080°07'0 0.0
2014-Apr-08 13:34N 26°07' W 080°07'0 0.0
2014-Apr-08 12:33N 26°07' W 080°07'0 0.0
2014-Apr-08 11:34N 26°07' W 080°07'0 0.0
2014-Apr-08 10:34N 26°07' W 080°07'0 0.0
2014-Apr-08 09:33N 26°07' W 080°07'0 0.0
2014-Apr-08 08:33N 26°07' W 080°07'0 0.0
2014-Apr-08 07:33N 26°07' W 080°07'0 0.0
2014-Apr-08 06:33N 26°07' W 080°07'0 0.0
2014-Apr-08 05:33N 26°07' W 080°07'0 0.0
2014-Apr-08 04:33N 26°07' W 080°07'0 0.0
2014-Apr-08 03:33N 26°07' W 080°07'0 0.0
2014-Apr-08 02:33N 26°07' W 080°07'0 0.0
2014-Apr-08 01:33N 26°07' W 080°07'0 0.0
2014-Apr-08 00:34N 26°07' W 080°07'0 0.0
2014-Apr-07 23:33N 26°07' W 080°07'0 0.0
2014-Apr-07 22:34N 26°07' W 080°07'0 0.0
2014-Apr-07 21:33N 26°07' W 080°07'0 0.0
2014-Apr-07 20:33N 26°07' W 080°07'0 0.0
2014-Apr-07 19:33N 26°07' W 080°07'0 0.0
2014-Apr-07 17:33N 26°07' W 080°07'2 1.7
2014-Apr-07 16:33N 26°06' W 080°05'1615.7
2014-Apr-07 15:33N 26°22' W 080°03'  
2014-Apr-04 23:31N 26°46' W 080°03'  
2014-Mar-30 20:19N 26°31' W 080°01'  

Dump ship's entire track history

sailing weather and tide predictions

Horizon — WDF5156 — position and weather